Flight Track Log - Related Links

Times and Time Zones

All times are in EDT time to prevent confusion due to time zone crossing. See the FAB808 flight status page for this flight to view local times or setup timezone preferences in your user account.


Time Position Orientation Groundspeed Altitude Reporting Facility
EDT Latitude Longitude Course Direction KTS MPH feet Rate Location/Type
Thu 04:08:00 PM 64.6442 -94.7568 60° Northeast  Level FlightAware Approximate
Thu 04:09:00 PM 64.6790 -94.6229 58° Northeast  Level FlightAware Approximate
Thu 04:10:00 PM 64.7139 -94.4890 59° Northeast  Level FlightAware Approximate
Thu 04:11:00 PM 64.7488 -94.3548 59° Northeast  Level FlightAware Approximate
Thu 04:12:00 PM 64.7862 -94.2243 56° Northeast  Level FlightAware Approximate
Thu 04:13:00 PM 64.8236 -94.0936 56° Northeast  Level FlightAware Approximate
Thu 04:14:00 PM 64.8609 -93.9625 56° Northeast  Level FlightAware Approximate
Thu 04:15:00 PM 64.8973 -93.8300 58° Northeast  Level FlightAware Approximate
Thu 04:16:00 PM 64.9326 -93.6954 58° Northeast  Level FlightAware Approximate
Thu 04:17:00 PM 64.9677 -93.5605 58° Northeast  Level FlightAware Approximate
Thu 04:18:00 PM 65.0021 -93.4244 60° Northeast  Level FlightAware Approximate
Thu 04:19:00 PM 65.0359 -93.2874 60° Northeast  Level FlightAware Approximate
Thu 04:20:00 PM 65.0696 -93.1499 60° Northeast  Level FlightAware Approximate
Thu 04:21:00 PM 65.1031 -93.0121 60° Northeast  Level FlightAware Approximate
Thu 04:22:00 PM 65.1366 -92.8740 60° Northeast  Level FlightAware Approximate
Thu 04:23:00 PM 65.1699 -92.7355 60° Northeast  Level FlightAware Approximate
Thu 04:24:00 PM 65.2030 -92.5967 60° Northeast  Level FlightAware Approximate
Thu 04:25:00 PM 65.2361 -92.4575 60° Northeast  Level FlightAware Approximate
Thu 04:26:00 PM 65.2690 -92.3180 61° Northeast  Level FlightAware Approximate
Thu 04:27:00 PM 65.3018 -92.1781 61° Northeast  Level FlightAware Approximate
Thu 04:28:00 PM 65.3345 -92.0379 61° Northeast  Level FlightAware Approximate
Thu 04:29:00 PM 65.3670 -91.8973 61° Northeast  Level FlightAware Approximate
Thu 04:30:00 PM 65.3994 -91.7564 61° Northeast  Level FlightAware Approximate
Thu 04:31:00 PM 65.4317 -91.6151 61° Northeast  Level FlightAware Approximate
Thu 04:32:00 PM 65.4638 -91.4735 61° Northeast  Level FlightAware Approximate
Thu 04:33:00 PM 65.4958 -91.3316 61° Northeast  Level FlightAware Approximate
Thu 04:34:00 PM 65.5277 -91.1893 62° Northeast  Level FlightAware Approximate
Thu 04:35:00 PM 65.5594 -91.0466 62° Northeast  Level FlightAware Approximate
Thu 04:36:00 PM 65.5910 -90.9036 62° Northeast  Level FlightAware Approximate
Thu 04:37:00 PM 65.6225 -90.7603 62° Northeast  Level FlightAware Approximate
Thu 04:38:00 PM 65.6538 -90.6166 62° Northeast  Level FlightAware Approximate
Thu 04:39:00 PM 65.6850 -90.4725 62° Northeast  Level FlightAware Approximate
Thu 04:40:00 PM 65.7161 -90.3281 62° Northeast  Level FlightAware Approximate
Thu 04:41:00 PM 65.7470 -90.1834 62° Northeast  Level FlightAware Approximate
Thu 04:42:00 PM 65.7778 -90.0383 63° Northeast  Level FlightAware Approximate
Thu 04:43:00 PM 65.8084 -89.8929 63° Northeast  Level FlightAware Approximate
Thu 04:44:00 PM 65.8390 -89.7471 63° Northeast  Level FlightAware Approximate
Thu 04:45:00 PM 65.8693 -89.6010 63° Northeast  Level FlightAware Approximate
Thu 04:46:00 PM 65.9006 -89.4558 61° Northeast  Level FlightAware Approximate
Thu 04:47:00 PM 65.9312 -89.3097 64° Northeast  Level FlightAware Approximate
Thu 04:48:00 PM 65.9604 -89.1616 64° Northeast  Level FlightAware Approximate
Thu 04:49:00 PM 65.9894 -89.0132 64° Northeast  Level FlightAware Approximate
Thu 04:50:00 PM 66.0183 -88.8644 64° Northeast  Level FlightAware Approximate
Thu 04:51:00 PM 66.0471 -88.7153 65° Northeast  Level FlightAware Approximate
Thu 04:52:00 PM 66.0764 -88.5666 64° Northeast  Level FlightAware Approximate
Thu 04:53:00 PM 66.1056 -88.4178 64° Northeast  Level FlightAware Approximate
Thu 04:54:00 PM 66.1347 -88.2685 64° Northeast  Level FlightAware Approximate
Thu 04:55:00 PM 66.1637 -88.1190 64° Northeast  Level FlightAware Approximate
Thu 04:56:00 PM 66.1935 -87.9704 61° Northeast  Level FlightAware Approximate
Thu 04:57:00 PM 66.2254 -87.8242 62° Northeast  Level FlightAware Approximate
Thu 04:58:00 PM 66.2571 -87.6776 62° Northeast  Level FlightAware Approximate
Thu 04:59:00 PM 66.2853 -87.5265 67° East  Level FlightAware Approximate
Thu 05:00:00 PM 66.3118 -87.3733 67° East  Level FlightAware Approximate
Thu 05:01:00 PM 66.3381 -87.2197 67° East  Level FlightAware Approximate
Thu 05:02:00 PM 66.3647 -87.0663 66° East  Level FlightAware Approximate
Thu 05:03:00 PM 66.3914 -86.9128 66° East  Level FlightAware Approximate
Thu 05:04:00 PM 66.4188 -86.7603 50° Northeast  Level FlightAware Approximate
Thu 05:05:00 PM 66.4500 -86.6208 90° East  Level FlightAware Approximate
Thu 05:06:00 PM 66.4716 -86.4647 65° Northeast  Level FlightAware Approximate
Thu 05:07:00 PM 66.5007 -86.3134 63° Northeast  Level FlightAware Approximate

Login

Don't have an account? Register now (free) for customized features, flight alerts, and more!